Archival Weather

Chicago O'Hare International

Chicago, Illinois (KORD)

Report from: Friday, December 2, 2022 8:51 AM CST
Current time: Friday, June 21, 2024 3:21 AM CDT

Current weather – Weather history – Daily summaries
Weather forecast

Temperature4.4°C (39.9°F)
Wind chill0.3°C (32.5°F)
Dew point-3.9°C (25.0°F)
Winds 11 kts (5.7 m/s, 12.7 mph) South (180°)
Wind gusts 19 kts (9.8 m/s, 21.9 mph)
Visibility10 mi. (16.1 km)
Clouds Ceiling: Overcast 3,000 ft. (914 m)
Altimeter29.94 in.Hg (1014 mB)
Relative humidity55 %
Density altitude-1,252 ft. (-382 m)
Sea-level pressure101.5 kPa (1015 mB, 29.96 in.Hg)
Remarks Automated weather observing station with precipitation discriminator
Pressure falling more quickly
Flight conditions Visual Meteorological Conditions
Raw dataKORD 021451Z 18011G19KT 10SM OVC030 04/M04 A2994 RMK AO2 SLP145 T00441039 58025
An error has occurred. This application may no longer respond until reloaded. Reload 🗙